sensor_id;sensor_type;location;lat;lon;timestamp;P1;durP1;ratioP1;P2;durP2;ratioP2
32295;SDS011;18781;51.550;5.418;2022-09-09T00:01:08;4.00;;;1.20;;
32295;SDS011;18781;51.550;5.418;2022-09-09T00:03:53;3.38;;;1.40;;
32295;SDS011;18781;51.550;5.418;2022-09-09T00:06:27;3.63;;;1.10;;
32295;SDS011;18781;51.550;5.418;2022-09-09T00:09:01;2.45;;;1.17;;
32295;SDS011;18781;51.550;5.418;2022-09-09T00:11:52;2.75;;;1.33;;
32295;SDS011;18781;51.550;5.418;2022-09-09T00:14:26;2.25;;;1.10;;
32295;SDS011;18781;51.550;5.418;2022-09-09T00:17:08;2.97;;;1.27;;
32295;SDS011;18781;51.550;5.418;2022-09-09T00:19:41;1.83;;;1.30;;
32295;SDS011;18781;51.550;5.418;2022-09-09T00:22:19;2.70;;;1.25;;
32295;SDS011;18781;51.550;5.418;2022-09-09T00:30:22;3.60;;;1.25;;
32295;SDS011;18781;51.550;5.418;2022-09-09T00:32:50;7.47;;;1.58;;
32295;SDS011;18781;51.550;5.418;2022-09-09T00:35:24;2.72;;;1.52;;
32295;SDS011;18781;51.550;5.418;2022-09-09T00:38:03;3.67;;;1.40;;
32295;SDS011;18781;51.550;5.418;2022-09-09T00:43:35;3.92;;;1.45;;
32295;SDS011;18781;51.550;5.418;2022-09-09T00:46:11;10.55;;;1.30;;
32295;SDS011;18781;51.550;5.418;2022-09-09T00:57:34;5.22;;;1.40;;
32295;SDS011;18781;51.550;5.418;2022-09-09T01:00:20;4.47;;;1.40;;
32295;SDS011;18781;51.550;5.418;2022-09-09T01:12:01;2.88;;;1.20;;
32295;SDS011;18781;51.550;5.418;2022-09-09T01:14:28;3.70;;;1.38;;
32295;SDS011;18781;51.550;5.418;2022-09-09T01:17:20;4.07;;;1.40;;
32295;SDS011;18781;51.550;5.418;2022-09-09T01:20:04;5.30;;;1.50;;
32295;SDS011;18781;51.550;5.418;2022-09-09T01:28:05;3.83;;;1.35;;
32295;SDS011;18781;51.550;5.418;2022-09-09T01:30:37;3.95;;;1.50;;
32295;SDS011;18781;51.550;5.418;2022-09-09T01:33:05;5.55;;;1.40;;
32295;SDS011;18781;51.550;5.418;2022-09-09T01:38:22;2.22;;;1.30;;
32295;SDS011;18781;51.550;5.418;2022-09-09T01:40:49;2.85;;;1.40;;
32295;SDS011;18781;51.550;5.418;2022-09-09T01:43:17;3.65;;;1.60;;
32295;SDS011;18781;51.550;5.418;2022-09-09T01:45:44;7.38;;;1.73;;
32295;SDS011;18781;51.550;5.418;2022-09-09T01:48:14;7.45;;;1.40;;
32295;SDS011;18781;51.550;5.418;2022-09-09T01:50:40;7.25;;;1.70;;
32295;SDS011;18781;51.550;5.418;2022-09-09T01:53:05;3.85;;;1.50;;
32295;SDS011;18781;51.550;5.418;2022-09-09T01:55:39;7.03;;;1.80;;
32295;SDS011;18781;51.550;5.418;2022-09-09T02:01:06;5.30;;;1.67;;
32295;SDS011;18781;51.550;5.418;2022-09-09T02:03:39;9.13;;;1.80;;
32295;SDS011;18781;51.550;5.418;2022-09-09T02:08:47;8.02;;;1.90;;
32295;SDS011;18781;51.550;5.418;2022-09-09T02:11:17;4.45;;;1.80;;
32295;SDS011;18781;51.550;5.418;2022-09-09T02:13:45;9.38;;;2.03;;
32295;SDS011;18781;51.550;5.418;2022-09-09T02:21:40;6.45;;;2.30;;
32295;SDS011;18781;51.550;5.418;2022-09-09T02:24:08;3.60;;;1.83;;
32295;SDS011;18781;51.550;5.418;2022-09-09T02:26:36;6.28;;;1.80;;
32295;SDS011;18781;51.550;5.418;2022-09-09T02:29:06;5.97;;;1.80;;
32295;SDS011;18781;51.550;5.418;2022-09-09T02:31:34;7.25;;;1.90;;
32295;SDS011;18781;51.550;5.418;2022-09-09T02:34:01;8.38;;;2.10;;
32295;SDS011;18781;51.550;5.418;2022-09-09T02:36:31;4.18;;;2.03;;
32295;SDS011;18781;51.550;5.418;2022-09-09T02:38:58;7.90;;;2.40;;
32295;SDS011;18781;51.550;5.418;2022-09-09T02:41:26;6.88;;;2.17;;
32295;SDS011;18781;51.550;5.418;2022-09-09T02:43:57;6.65;;;2.25;;
32295;SDS011;18781;51.550;5.418;2022-09-09T02:46:37;6.75;;;2.28;;
32295;SDS011;18781;51.550;5.418;2022-09-09T02:49:50;6.30;;;2.35;;
32295;SDS011;18781;51.550;5.418;2022-09-09T02:52:30;6.97;;;2.50;;
32295;SDS011;18781;51.550;5.418;2022-09-09T02:55:16;11.55;;;2.15;;
32295;SDS011;18781;51.550;5.418;2022-09-09T02:57:46;6.38;;;2.10;;
32295;SDS011;18781;51.550;5.418;2022-09-09T03:00:13;13.45;;;2.10;;
32295;SDS011;18781;51.550;5.418;2022-09-09T03:02:39;10.60;;;2.20;;
32295;SDS011;18781;51.550;5.418;2022-09-09T03:05:05;5.40;;;2.00;;
32295;SDS011;18781;51.550;5.418;2022-09-09T03:07:31;5.28;;;2.10;;
32295;SDS011;18781;51.550;5.418;2022-09-09T03:09:57;6.88;;;2.08;;
32295;SDS011;18781;51.550;5.418;2022-09-09T03:12:23;7.32;;;2.20;;
32295;SDS011;18781;51.550;5.418;2022-09-09T03:14:49;10.10;;;2.70;;
32295;SDS011;18781;51.550;5.418;2022-09-09T03:17:14;7.53;;;2.22;;
32295;SDS011;18781;51.550;5.418;2022-09-09T03:19:40;4.15;;;2.03;;
32295;SDS011;18781;51.550;5.418;2022-09-09T03:22:06;5.22;;;1.92;;
32295;SDS011;18781;51.550;5.418;2022-09-09T03:24:34;4.68;;;2.10;;
32295;SDS011;18781;51.550;5.418;2022-09-09T03:27:00;7.32;;;1.77;;
32295;SDS011;18781;51.550;5.418;2022-09-09T03:29:26;9.55;;;2.33;;
32295;SDS011;18781;51.550;5.418;2022-09-09T03:31:51;6.28;;;1.75;;
32295;SDS011;18781;51.550;5.418;2022-09-09T03:34:17;7.28;;;2.10;;
32295;SDS011;18781;51.550;5.418;2022-09-09T03:36:43;9.10;;;2.20;;
32295;SDS011;18781;51.550;5.418;2022-09-09T03:39:08;8.93;;;2.20;;
32295;SDS011;18781;51.550;5.418;2022-09-09T03:41:34;8.48;;;2.03;;
32295;SDS011;18781;51.550;5.418;2022-09-09T03:43:59;8.63;;;1.85;;
32295;SDS011;18781;51.550;5.418;2022-09-09T03:46:25;6.25;;;1.92;;
32295;SDS011;18781;51.550;5.418;2022-09-09T03:48:51;9.30;;;2.20;;
32295;SDS011;18781;51.550;5.418;2022-09-09T03:51:19;7.70;;;1.80;;
32295;SDS011;18781;51.550;5.418;2022-09-09T03:53:46;8.25;;;2.50;;
32295;SDS011;18781;51.550;5.418;2022-09-09T03:56:12;12.25;;;2.30;;
32295;SDS011;18781;51.550;5.418;2022-09-09T03:58:38;7.75;;;2.05;;
32295;SDS011;18781;51.550;5.418;2022-09-09T04:01:05;10.38;;;2.35;;
32295;SDS011;18781;51.550;5.418;2022-09-09T04:03:35;10.40;;;2.05;;
32295;SDS011;18781;51.550;5.418;2022-09-09T04:06:01;4.63;;;2.05;;
32295;SDS011;18781;51.550;5.418;2022-09-09T04:08:28;7.70;;;2.20;;
32295;SDS011;18781;51.550;5.418;2022-09-09T04:10:56;7.82;;;2.13;;
32295;SDS011;18781;51.550;5.418;2022-09-09T04:13:22;8.63;;;2.10;;
32295;SDS011;18781;51.550;5.418;2022-09-09T04:15:56;8.00;;;2.22;;
32295;SDS011;18781;51.550;5.418;2022-09-09T04:18:23;10.20;;;2.22;;
32295;SDS011;18781;51.550;5.418;2022-09-09T04:20:49;13.32;;;2.30;;
32295;SDS011;18781;51.550;5.418;2022-09-09T04:23:16;7.55;;;2.10;;
32295;SDS011;18781;51.550;5.418;2022-09-09T04:25:47;10.00;;;2.10;;
32295;SDS011;18781;51.550;5.418;2022-09-09T04:28:18;7.57;;;2.00;;
32295;SDS011;18781;51.550;5.418;2022-09-09T04:30:45;10.27;;;2.20;;
32295;SDS011;18781;51.550;5.418;2022-09-09T04:33:10;11.48;;;2.33;;
32295;SDS011;18781;51.550;5.418;2022-09-09T04:35:37;12.40;;;2.58;;
32295;SDS011;18781;51.550;5.418;2022-09-09T04:38:03;5.70;;;2.35;;
32295;SDS011;18781;51.550;5.418;2022-09-09T04:40:31;13.68;;;2.70;;
32295;SDS011;18781;51.550;5.418;2022-09-09T04:42:58;10.10;;;2.05;;
32295;SDS011;18781;51.550;5.418;2022-09-09T04:45:24;8.35;;;2.40;;
32295;SDS011;18781;51.550;5.418;2022-09-09T04:47:51;13.57;;;2.35;;
32295;SDS011;18781;51.550;5.418;2022-09-09T04:50:17;8.48;;;2.08;;
32295;SDS011;18781;51.550;5.418;2022-09-09T04:52:43;8.55;;;2.60;;
32295;SDS011;18781;51.550;5.418;2022-09-09T04:55:09;10.27;;;2.40;;
32295;SDS011;18781;51.550;5.418;2022-09-09T04:57:35;11.88;;;2.30;;
32295;SDS011;18781;51.550;5.418;2022-09-09T05:00:01;14.07;;;2.85;;
32295;SDS011;18781;51.550;5.418;2022-09-09T05:02:28;8.75;;;2.20;;
32295;SDS011;18781;51.550;5.418;2022-09-09T05:04:55;7.38;;;2.20;;
32295;SDS011;18781;51.550;5.418;2022-09-09T05:07:21;12.95;;;2.50;;
32295;SDS011;18781;51.550;5.418;2022-09-09T05:09:47;10.77;;;2.30;;
32295;SDS011;18781;51.550;5.418;2022-09-09T05:12:14;8.85;;;2.72;;
32295;SDS011;18781;51.550;5.418;2022-09-09T05:14:41;15.77;;;2.70;;
32295;SDS011;18781;51.550;5.418;2022-09-09T05:17:10;9.57;;;2.70;;
32295;SDS011;18781;51.550;5.418;2022-09-09T05:19:36;9.68;;;2.45;;
32295;SDS011;18781;51.550;5.418;2022-09-09T05:22:02;9.55;;;2.35;;
32295;SDS011;18781;51.550;5.418;2022-09-09T05:24:27;10.20;;;2.20;;
32295;SDS011;18781;51.550;5.418;2022-09-09T05:26:53;12.35;;;2.40;;
32295;SDS011;18781;51.550;5.418;2022-09-09T05:29:24;7.60;;;2.17;;
32295;SDS011;18781;51.550;5.418;2022-09-09T05:31:51;9.07;;;2.25;;
32295;SDS011;18781;51.550;5.418;2022-09-09T05:34:17;15.50;;;2.22;;
32295;SDS011;18781;51.550;5.418;2022-09-09T05:36:42;12.27;;;2.25;;
32295;SDS011;18781;51.550;5.418;2022-09-09T05:39:08;8.93;;;2.20;;
32295;SDS011;18781;51.550;5.418;2022-09-09T05:41:34;10.43;;;2.15;;
32295;SDS011;18781;51.550;5.418;2022-09-09T05:44:00;15.23;;;3.00;;
32295;SDS011;18781;51.550;5.418;2022-09-09T05:46:26;12.70;;;2.63;;
32295;SDS011;18781;51.550;5.418;2022-09-09T05:48:52;13.10;;;2.50;;
32295;SDS011;18781;51.550;5.418;2022-09-09T05:51:20;15.88;;;2.88;;
32295;SDS011;18781;51.550;5.418;2022-09-09T05:53:49;9.25;;;2.40;;
32295;SDS011;18781;51.550;5.418;2022-09-09T05:56:16;12.55;;;2.72;;
32295;SDS011;18781;51.550;5.418;2022-09-09T05:58:44;18.02;;;3.15;;
32295;SDS011;18781;51.550;5.418;2022-09-09T06:01:16;14.65;;;2.50;;
32295;SDS011;18781;51.550;5.418;2022-09-09T06:03:44;12.18;;;2.70;;
32295;SDS011;18781;51.550;5.418;2022-09-09T06:06:11;10.85;;;2.60;;
32295;SDS011;18781;51.550;5.418;2022-09-09T06:08:40;11.82;;;2.45;;
32295;SDS011;18781;51.550;5.418;2022-09-09T06:11:10;11.57;;;2.90;;
32295;SDS011;18781;51.550;5.418;2022-09-09T06:13:40;15.77;;;2.70;;
32295;SDS011;18781;51.550;5.418;2022-09-09T06:16:08;10.90;;;2.30;;
32295;SDS011;18781;51.550;5.418;2022-09-09T06:18:36;13.35;;;2.88;;
32295;SDS011;18781;51.550;5.418;2022-09-09T06:21:03;8.70;;;2.22;;
32295;SDS011;18781;51.550;5.418;2022-09-09T06:23:31;14.25;;;2.38;;
32295;SDS011;18781;51.550;5.418;2022-09-09T06:26:02;18.25;;;2.83;;
32295;SDS011;18781;51.550;5.418;2022-09-09T06:28:41;13.50;;;3.10;;
32295;SDS011;18781;51.550;5.418;2022-09-09T06:31:08;14.57;;;2.50;;
32295;SDS011;18781;51.550;5.418;2022-09-09T06:33:36;11.38;;;2.45;;
32295;SDS011;18781;51.550;5.418;2022-09-09T06:36:06;13.40;;;2.75;;
32295;SDS011;18781;51.550;5.418;2022-09-09T06:38:35;12.25;;;2.22;;
32295;SDS011;18781;51.550;5.418;2022-09-09T06:41:00;15.57;;;3.03;;
32295;SDS011;18781;51.550;5.418;2022-09-09T06:43:26;12.82;;;2.70;;
32295;SDS011;18781;51.550;5.418;2022-09-09T06:45:56;15.23;;;2.40;;
32295;SDS011;18781;51.550;5.418;2022-09-09T06:48:24;10.88;;;2.67;;
32295;SDS011;18781;51.550;5.418;2022-09-09T06:50:51;15.30;;;2.88;;
32295;SDS011;18781;51.550;5.418;2022-09-09T06:53:27;15.73;;;2.83;;
32295;SDS011;18781;51.550;5.418;2022-09-09T06:55:53;12.35;;;3.05;;
32295;SDS011;18781;51.550;5.418;2022-09-09T06:58:19;14.93;;;2.80;;
32295;SDS011;18781;51.550;5.418;2022-09-09T07:00:47;9.88;;;2.33;;
32295;SDS011;18781;51.550;5.418;2022-09-09T07:03:12;18.10;;;3.05;;
32295;SDS011;18781;51.550;5.418;2022-09-09T07:05:38;18.50;;;3.08;;
32295;SDS011;18781;51.550;5.418;2022-09-09T07:08:04;19.25;;;2.88;;
32295;SDS011;18781;51.550;5.418;2022-09-09T07:10:30;17.08;;;3.03;;
32295;SDS011;18781;51.550;5.418;2022-09-09T07:12:56;21.00;;;3.80;;
32295;SDS011;18781;51.550;5.418;2022-09-09T07:15:21;16.10;;;2.90;;
32295;SDS011;18781;51.550;5.418;2022-09-09T07:17:47;12.30;;;2.92;;
32295;SDS011;18781;51.550;5.418;2022-09-09T07:20:13;13.13;;;2.85;;
32295;SDS011;18781;51.550;5.418;2022-09-09T07:22:40;21.40;;;3.00;;
32295;SDS011;18781;51.550;5.418;2022-09-09T07:25:06;11.52;;;2.65;;
32295;SDS011;18781;51.550;5.418;2022-09-09T07:27:32;10.13;;;2.47;;
32295;SDS011;18781;51.550;5.418;2022-09-09T07:29:58;15.57;;;3.20;;
32295;SDS011;18781;51.550;5.418;2022-09-09T07:32:23;16.17;;;3.00;;
32295;SDS011;18781;51.550;5.418;2022-09-09T07:34:50;18.80;;;2.88;;
32295;SDS011;18781;51.550;5.418;2022-09-09T07:37:16;13.82;;;2.50;;
32295;SDS011;18781;51.550;5.418;2022-09-09T07:39:42;19.73;;;3.22;;
32295;SDS011;18781;51.550;5.418;2022-09-09T07:42:09;12.55;;;2.75;;
32295;SDS011;18781;51.550;5.418;2022-09-09T07:44:36;15.02;;;2.80;;
32295;SDS011;18781;51.550;5.418;2022-09-09T07:47:04;16.77;;;2.83;;
32295;SDS011;18781;51.550;5.418;2022-09-09T07:49:30;14.10;;;2.78;;
32295;SDS011;18781;51.550;5.418;2022-09-09T07:51:57;12.48;;;2.90;;
32295;SDS011;18781;51.550;5.418;2022-09-09T07:54:23;17.73;;;2.85;;
32295;SDS011;18781;51.550;5.418;2022-09-09T07:56:49;16.38;;;2.63;;
32295;SDS011;18781;51.550;5.418;2022-09-09T07:59:15;13.00;;;2.75;;
32295;SDS011;18781;51.550;5.418;2022-09-09T08:01:43;12.02;;;2.90;;
32295;SDS011;18781;51.550;5.418;2022-09-09T08:04:19;14.70;;;3.08;;
32295;SDS011;18781;51.550;5.418;2022-09-09T08:06:50;13.05;;;2.92;;
32295;SDS011;18781;51.550;5.418;2022-09-09T08:09:20;16.77;;;3.08;;
32295;SDS011;18781;51.550;5.418;2022-09-09T08:11:49;11.80;;;2.70;;
32295;SDS011;18781;51.550;5.418;2022-09-09T08:14:15;17.55;;;3.00;;
32295;SDS011;18781;51.550;5.418;2022-09-09T08:16:42;15.18;;;3.05;;
32295;SDS011;18781;51.550;5.418;2022-09-09T08:19:10;16.60;;;2.90;;
32295;SDS011;18781;51.550;5.418;2022-09-09T08:21:36;13.23;;;2.50;;
32295;SDS011;18781;51.550;5.418;2022-09-09T08:24:04;15.50;;;2.88;;
32295;SDS011;18781;51.550;5.418;2022-09-09T08:26:35;17.38;;;3.55;;
32295;SDS011;18781;51.550;5.418;2022-09-09T08:29:06;9.82;;;2.45;;
32295;SDS011;18781;51.550;5.418;2022-09-09T08:31:34;13.20;;;3.00;;
32295;SDS011;18781;51.550;5.418;2022-09-09T08:34:19;15.25;;;2.90;;
32295;SDS011;18781;51.550;5.418;2022-09-09T08:36:46;18.52;;;3.10;;
32295;SDS011;18781;51.550;5.418;2022-09-09T08:39:13;14.80;;;2.58;;
32295;SDS011;18781;51.550;5.418;2022-09-09T08:50:19;11.40;;;2.50;;
32295;SDS011;18781;51.550;5.418;2022-09-09T08:58:17;12.32;;;2.53;;
32295;SDS011;18781;51.550;5.418;2022-09-09T09:09:14;17.17;;;3.75;;
32295;SDS011;18781;51.550;5.418;2022-09-09T09:11:50;18.17;;;3.38;;
32295;SDS011;18781;51.550;5.418;2022-09-09T09:14:22;12.02;;;3.05;;
32295;SDS011;18781;51.550;5.418;2022-09-09T09:19:15;15.15;;;3.10;;
32295;SDS011;18781;51.550;5.418;2022-09-09T09:24:49;15.80;;;2.80;;
32295;SDS011;18781;51.550;5.418;2022-09-09T09:29:59;13.80;;;3.08;;
32295;SDS011;18781;51.550;5.418;2022-09-09T09:32:31;13.45;;;2.90;;
32295;SDS011;18781;51.550;5.418;2022-09-09T09:34:59;11.65;;;2.88;;
32295;SDS011;18781;51.550;5.418;2022-09-09T09:37:30;9.98;;;2.25;;
32295;SDS011;18781;51.550;5.418;2022-09-09T09:45:27;13.75;;;2.65;;
32295;SDS011;18781;51.550;5.418;2022-09-09T09:48:04;16.10;;;2.78;;
32295;SDS011;18781;51.550;5.418;2022-09-09T09:50:31;17.10;;;3.08;;
32295;SDS011;18781;51.550;5.418;2022-09-09T09:53:02;13.65;;;3.03;;
32295;SDS011;18781;51.550;5.418;2022-09-09T09:55:32;10.50;;;2.80;;
32295;SDS011;18781;51.550;5.418;2022-09-09T09:58:00;12.75;;;3.08;;
32295;SDS011;18781;51.550;5.418;2022-09-09T10:00:28;13.98;;;2.92;;
32295;SDS011;18781;51.550;5.418;2022-09-09T10:02:54;9.85;;;2.38;;
32295;SDS011;18781;51.550;5.418;2022-09-09T10:05:22;18.05;;;2.78;;
32295;SDS011;18781;51.550;5.418;2022-09-09T10:11:18;12.70;;;2.58;;
32295;SDS011;18781;51.550;5.418;2022-09-09T10:32:56;12.25;;;2.40;;
32295;SDS011;18781;51.550;5.418;2022-09-09T10:35:30;12.27;;;2.80;;
32295;SDS011;18781;51.550;5.418;2022-09-09T10:43:29;9.32;;;2.47;;
32295;SDS011;18781;51.550;5.418;2022-09-09T10:46:23;13.15;;;2.15;;
32295;SDS011;18781;51.550;5.418;2022-09-09T10:51:37;15.93;;;3.03;;
32295;SDS011;18781;51.550;5.418;2022-09-09T10:56:49;11.50;;;2.70;;
32295;SDS011;18781;51.550;5.418;2022-09-09T10:59:23;10.55;;;2.65;;
32295;SDS011;18781;51.550;5.418;2022-09-09T11:01:59;8.88;;;2.20;;
32295;SDS011;18781;51.550;5.418;2022-09-09T11:04:47;12.07;;;2.90;;
32295;SDS011;18781;51.550;5.418;2022-09-09T11:07:24;9.90;;;3.00;;
32295;SDS011;18781;51.550;5.418;2022-09-09T11:09:54;16.48;;;2.60;;
32295;SDS011;18781;51.550;5.418;2022-09-09T11:12:26;13.60;;;3.10;;
32295;SDS011;18781;51.550;5.418;2022-09-09T11:15:04;13.10;;;3.13;;
32295;SDS011;18781;51.550;5.418;2022-09-09T11:17:54;8.25;;;2.38;;
32295;SDS011;18781;51.550;5.418;2022-09-09T11:20:23;11.45;;;3.13;;
32295;SDS011;18781;51.550;5.418;2022-09-09T11:23:01;8.05;;;2.63;;
32295;SDS011;18781;51.550;5.418;2022-09-09T11:25:40;13.27;;;3.45;;
32295;SDS011;18781;51.550;5.418;2022-09-09T11:31:07;15.50;;;3.55;;
32295;SDS011;18781;51.550;5.418;2022-09-09T11:39:27;11.48;;;2.67;;
32295;SDS011;18781;51.550;5.418;2022-09-09T11:44:38;9.20;;;2.58;;
32295;SDS011;18781;51.550;5.418;2022-09-09T11:47:03;10.35;;;2.13;;
32295;SDS011;18781;51.550;5.418;2022-09-09T11:50:40;9.82;;;2.20;;
32295;SDS011;18781;51.550;5.418;2022-09-09T11:52:41;7.55;;;2.13;;
32295;SDS011;18781;51.550;5.418;2022-09-09T11:55:11;7.03;;;1.98;;
32295;SDS011;18781;51.550;5.418;2022-09-09T11:57:49;13.30;;;2.40;;
32295;SDS011;18781;51.550;5.418;2022-09-09T12:03:55;13.10;;;2.40;;
32295;SDS011;18781;51.550;5.418;2022-09-09T12:06:00;13.48;;;2.88;;
32295;SDS011;18781;51.550;5.418;2022-09-09T12:08:45;9.40;;;2.33;;
32295;SDS011;18781;51.550;5.418;2022-09-09T12:11:24;8.88;;;2.70;;
32295;SDS011;18781;51.550;5.418;2022-09-09T12:13:56;11.63;;;2.35;;
32295;SDS011;18781;51.550;5.418;2022-09-09T12:16:30;9.60;;;2.72;;
32295;SDS011;18781;51.550;5.418;2022-09-09T12:27:42;6.90;;;2.05;;
32295;SDS011;18781;51.550;5.418;2022-09-09T12:30:15;13.45;;;2.20;;
32295;SDS011;18781;51.550;5.418;2022-09-09T12:32:42;10.77;;;2.53;;
32295;SDS011;18781;51.550;5.418;2022-09-09T12:35:10;10.75;;;2.45;;
32295;SDS011;18781;51.550;5.418;2022-09-09T12:37:46;8.38;;;2.25;;
32295;SDS011;18781;51.550;5.418;2022-09-09T12:40:19;9.88;;;2.50;;
32295;SDS011;18781;51.550;5.418;2022-09-09T12:42:57;12.60;;;2.53;;
32295;SDS011;18781;51.550;5.418;2022-09-09T12:45:27;9.35;;;2.28;;
32295;SDS011;18781;51.550;5.418;2022-09-09T12:50:25;11.50;;;2.95;;
32295;SDS011;18781;51.550;5.418;2022-09-09T12:52:57;12.60;;;2.45;;
32295;SDS011;18781;51.550;5.418;2022-09-09T12:55:35;10.32;;;2.70;;
32295;SDS011;18781;51.550;5.418;2022-09-09T12:58:02;8.45;;;2.38;;
32295;SDS011;18781;51.550;5.418;2022-09-09T13:00:30;10.13;;;2.47;;
32295;SDS011;18781;51.550;5.418;2022-09-09T13:02:59;11.75;;;2.55;;
32295;SDS011;18781;51.550;5.418;2022-09-09T13:05:35;12.02;;;2.80;;
32295;SDS011;18781;51.550;5.418;2022-09-09T13:08:03;10.77;;;2.78;;
32295;SDS011;18781;51.550;5.418;2022-09-09T13:10:46;10.43;;;2.35;;
32295;SDS011;18781;51.550;5.418;2022-09-09T13:13:21;9.63;;;2.38;;
32295;SDS011;18781;51.550;5.418;2022-09-09T13:15:49;9.15;;;2.63;;
32295;SDS011;18781;51.550;5.418;2022-09-09T13:18:18;7.63;;;2.40;;
32295;SDS011;18781;51.550;5.418;2022-09-09T13:20:49;8.38;;;2.50;;
32295;SDS011;18781;51.550;5.418;2022-09-09T13:23:16;8.93;;;2.50;;
32295;SDS011;18781;51.550;5.418;2022-09-09T13:25:57;9.93;;;2.88;;
32295;SDS011;18781;51.550;5.418;2022-09-09T13:28:26;13.43;;;3.33;;
32295;SDS011;18781;51.550;5.418;2022-09-09T13:31:01;11.02;;;3.38;;
32295;SDS011;18781;51.550;5.418;2022-09-09T13:36:06;13.27;;;3.10;;
32295;SDS011;18781;51.550;5.418;2022-09-09T13:38:40;10.32;;;2.80;;
32295;SDS011;18781;51.550;5.418;2022-09-09T13:41:22;11.10;;;2.85;;
32295;SDS011;18781;51.550;5.418;2022-09-09T13:43:49;9.65;;;2.50;;
32295;SDS011;18781;51.550;5.418;2022-09-09T13:49:17;10.50;;;2.55;;
32295;SDS011;18781;51.550;5.418;2022-09-09T13:51:46;9.23;;;2.47;;
32295;SDS011;18781;51.550;5.418;2022-09-09T13:54:16;10.57;;;2.50;;
32295;SDS011;18781;51.550;5.418;2022-09-09T13:56:43;11.52;;;2.40;;
32295;SDS011;18781;51.550;5.418;2022-09-09T13:59:13;9.35;;;2.33;;
32295;SDS011;18781;51.550;5.418;2022-09-09T14:01:40;10.40;;;2.13;;
32295;SDS011;18781;51.550;5.418;2022-09-09T14:04:06;8.82;;;2.45;;
32295;SDS011;18781;51.550;5.418;2022-09-09T14:06:32;6.95;;;1.80;;
32295;SDS011;18781;51.550;5.418;2022-09-09T14:09:03;8.18;;;1.92;;
32295;SDS011;18781;51.550;5.418;2022-09-09T14:11:29;9.27;;;2.28;;
32295;SDS011;18781;51.550;5.418;2022-09-09T14:13:55;9.48;;;2.15;;
32295;SDS011;18781;51.550;5.418;2022-09-09T14:16:21;8.18;;;2.20;;
32295;SDS011;18781;51.550;5.418;2022-09-09T14:18:46;6.70;;;1.67;;
32295;SDS011;18781;51.550;5.418;2022-09-09T14:21:12;9.85;;;2.22;;
32295;SDS011;18781;51.550;5.418;2022-09-09T14:23:39;7.22;;;2.10;;
32295;SDS011;18781;51.550;5.418;2022-09-09T14:26:05;4.95;;;1.65;;
32295;SDS011;18781;51.550;5.418;2022-09-09T14:28:31;6.15;;;1.90;;
32295;SDS011;18781;51.550;5.418;2022-09-09T14:31:02;5.95;;;1.70;;
32295;SDS011;18781;51.550;5.418;2022-09-09T14:33:29;10.45;;;2.35;;
32295;SDS011;18781;51.550;5.418;2022-09-09T14:36:04;9.70;;;2.08;;
32295;SDS011;18781;51.550;5.418;2022-09-09T14:38:33;7.88;;;2.35;;
32295;SDS011;18781;51.550;5.418;2022-09-09T14:41:03;7.35;;;2.17;;
32295;SDS011;18781;51.550;5.418;2022-09-09T14:43:29;3.60;;;1.42;;
32295;SDS011;18781;51.550;5.418;2022-09-09T14:45:57;7.57;;;1.75;;
32295;SDS011;18781;51.550;5.418;2022-09-09T14:48:30;6.32;;;1.50;;
32295;SDS011;18781;51.550;5.418;2022-09-09T14:50:56;8.68;;;1.92;;
32295;SDS011;18781;51.550;5.418;2022-09-09T14:53:21;10.60;;;2.05;;
32295;SDS011;18781;51.550;5.418;2022-09-09T14:55:47;9.60;;;1.95;;
32295;SDS011;18781;51.550;5.418;2022-09-09T14:58:13;6.03;;;1.73;;
32295;SDS011;18781;51.550;5.418;2022-09-09T15:00:38;6.55;;;1.83;;
32295;SDS011;18781;51.550;5.418;2022-09-09T15:03:04;7.03;;;1.85;;
32295;SDS011;18781;51.550;5.418;2022-09-09T15:05:30;6.43;;;1.48;;
32295;SDS011;18781;51.550;5.418;2022-09-09T15:07:56;5.47;;;1.67;;
32295;SDS011;18781;51.550;5.418;2022-09-09T15:10:23;7.18;;;1.83;;
32295;SDS011;18781;51.550;5.418;2022-09-09T15:12:49;6.32;;;1.40;;
32295;SDS011;18781;51.550;5.418;2022-09-09T15:15:14;8.75;;;2.13;;
32295;SDS011;18781;51.550;5.418;2022-09-09T15:17:40;10.05;;;1.83;;
32295;SDS011;18781;51.550;5.418;2022-09-09T15:20:06;19.23;;;2.65;;
32295;SDS011;18781;51.550;5.418;2022-09-09T15:22:32;8.95;;;2.30;;
32295;SDS011;18781;51.550;5.418;2022-09-09T15:24:58;8.50;;;2.08;;
32295;SDS011;18781;51.550;5.418;2022-09-09T15:27:24;9.40;;;2.17;;
32295;SDS011;18781;51.550;5.418;2022-09-09T15:29:50;4.63;;;1.48;;
32295;SDS011;18781;51.550;5.418;2022-09-09T15:32:16;5.47;;;1.27;;
32295;SDS011;18781;51.550;5.418;2022-09-09T15:34:42;2.15;;;1.10;;
32295;SDS011;18781;51.550;5.418;2022-09-09T15:37:09;5.57;;;0.82;;
32295;SDS011;18781;51.550;5.418;2022-09-09T15:39:38;3.00;;;0.95;;
32295;SDS011;18781;51.550;5.418;2022-09-09T15:42:04;5.32;;;1.05;;
32295;SDS011;18781;51.550;5.418;2022-09-09T15:44:38;6.75;;;1.23;;
32295;SDS011;18781;51.550;5.418;2022-09-09T15:47:04;3.42;;;0.90;;
32295;SDS011;18781;51.550;5.418;2022-09-09T15:49:30;3.67;;;1.10;;
32295;SDS011;18781;51.550;5.418;2022-09-09T15:51:56;5.63;;;1.20;;
32295;SDS011;18781;51.550;5.418;2022-09-09T15:54:24;5.40;;;1.17;;
32295;SDS011;18781;51.550;5.418;2022-09-09T15:56:51;4.40;;;1.15;;
32295;SDS011;18781;51.550;5.418;2022-09-09T15:59:25;3.72;;;1.20;;
32295;SDS011;18781;51.550;5.418;2022-09-09T16:01:52;3.47;;;1.00;;
32295;SDS011;18781;51.550;5.418;2022-09-09T16:04:20;4.40;;;1.00;;
32295;SDS011;18781;51.550;5.418;2022-09-09T16:06:53;3.10;;;1.05;;
32295;SDS011;18781;51.550;5.418;2022-09-09T16:09:20;4.10;;;1.20;;
32295;SDS011;18781;51.550;5.418;2022-09-09T16:11:46;2.78;;;0.77;;
32295;SDS011;18781;51.550;5.418;2022-09-09T16:14:12;3.33;;;1.00;;
32295;SDS011;18781;51.550;5.418;2022-09-09T16:16:40;3.03;;;0.90;;
32295;SDS011;18781;51.550;5.418;2022-09-09T16:19:07;7.25;;;2.08;;
32295;SDS011;18781;51.550;5.418;2022-09-09T16:21:36;11.25;;;2.08;;
32295;SDS011;18781;51.550;5.418;2022-09-09T16:24:07;6.25;;;1.83;;
32295;SDS011;18781;51.550;5.418;2022-09-09T16:26:35;2.75;;;1.20;;
32295;SDS011;18781;51.550;5.418;2022-09-09T16:29:02;4.50;;;1.63;;
32295;SDS011;18781;51.550;5.418;2022-09-09T16:31:29;3.38;;;1.25;;
32295;SDS011;18781;51.550;5.418;2022-09-09T16:33:56;5.80;;;1.58;;
32295;SDS011;18781;51.550;5.418;2022-09-09T16:36:23;3.20;;;1.30;;
32295;SDS011;18781;51.550;5.418;2022-09-09T16:38:54;4.97;;;1.63;;
32295;SDS011;18781;51.550;5.418;2022-09-09T16:41:22;6.30;;;1.65;;
32295;SDS011;18781;51.550;5.418;2022-09-09T16:43:52;4.10;;;1.60;;
32295;SDS011;18781;51.550;5.418;2022-09-09T16:46:21;5.78;;;2.00;;
32295;SDS011;18781;51.550;5.418;2022-09-09T16:48:48;4.72;;;1.80;;
32295;SDS011;18781;51.550;5.418;2022-09-09T16:51:16;4.80;;;1.85;;
32295;SDS011;18781;51.550;5.418;2022-09-09T16:53:43;5.93;;;1.87;;
32295;SDS011;18781;51.550;5.418;2022-09-09T16:56:10;3.75;;;1.60;;
32295;SDS011;18781;51.550;5.418;2022-09-09T16:58:37;2.93;;;1.57;;
32295;SDS011;18781;51.550;5.418;2022-09-09T17:01:04;3.90;;;1.65;;
32295;SDS011;18781;51.550;5.418;2022-09-09T17:03:30;8.15;;;1.65;;
32295;SDS011;18781;51.550;5.418;2022-09-09T17:05:57;5.35;;;1.48;;
32295;SDS011;18781;51.550;5.418;2022-09-09T17:08:26;2.83;;;1.15;;
32295;SDS011;18781;51.550;5.418;2022-09-09T17:10:55;4.53;;;1.47;;
32295;SDS011;18781;51.550;5.418;2022-09-09T17:13:21;2.80;;;1.27;;
32295;SDS011;18781;51.550;5.418;2022-09-09T17:15:47;2.80;;;1.45;;
32295;SDS011;18781;51.550;5.418;2022-09-09T17:18:13;2.88;;;1.48;;
32295;SDS011;18781;51.550;5.418;2022-09-09T17:20:39;3.85;;;1.25;;